sensor_id;sensor_type;location;lat;lon;timestamp;P1;durP1;ratioP1;P2;durP2;ratioP2
69404;SDS011;57084;52.046;5.632;2022-12-29T00:00:00;4.9;;;2.2;;
69404;SDS011;57084;52.046;5.632;2022-12-29T00:01:00;4.6;;;2.1;;
69404;SDS011;57084;52.046;5.632;2022-12-29T00:02:01;4.6;;;2.1;;
69404;SDS011;57084;52.046;5.632;2022-12-29T00:03:00;4.6;;;2.1;;
69404;SDS011;57084;52.046;5.632;2022-12-29T00:04:00;4.6;;;2.1;;
69404;SDS011;57084;52.046;5.632;2022-12-29T00:05:00;4.6;;;2.1;;
69404;SDS011;57084;52.046;5.632;2022-12-29T00:06:00;5.2;;;2.4;;
69404;SDS011;57084;52.046;5.632;2022-12-29T00:07:00;5.2;;;2.4;;
69404;SDS011;57084;52.046;5.632;2022-12-29T00:08:00;5.2;;;2.4;;
69404;SDS011;57084;52.046;5.632;2022-12-29T00:09:00;5.2;;;2.4;;
69404;SDS011;57084;52.046;5.632;2022-12-29T00:10:00;5.2;;;2.4;;
69404;SDS011;57084;52.046;5.632;2022-12-29T00:11:00;6.0;;;2.2;;
69404;SDS011;57084;52.046;5.632;2022-12-29T00:12:01;6.0;;;2.2;;
69404;SDS011;57084;52.046;5.632;2022-12-29T00:13:00;6.0;;;2.2;;
69404;SDS011;57084;52.046;5.632;2022-12-29T00:14:00;6.0;;;2.2;;
69404;SDS011;57084;52.046;5.632;2022-12-29T00:15:00;6.0;;;2.2;;
69404;SDS011;57084;52.046;5.632;2022-12-29T00:16:00;4.1;;;1.9;;
69404;SDS011;57084;52.046;5.632;2022-12-29T00:17:00;4.1;;;1.9;;
69404;SDS011;57084;52.046;5.632;2022-12-29T00:18:00;4.1;;;1.9;;
69404;SDS011;57084;52.046;5.632;2022-12-29T00:19:00;4.1;;;1.9;;
69404;SDS011;57084;52.046;5.632;2022-12-29T00:20:00;4.1;;;1.9;;
69404;SDS011;57084;52.046;5.632;2022-12-29T00:21:00;6.3;;;2.1;;
69404;SDS011;57084;52.046;5.632;2022-12-29T00:22:00;6.3;;;2.1;;
69404;SDS011;57084;52.046;5.632;2022-12-29T00:23:00;6.3;;;2.1;;
69404;SDS011;57084;52.046;5.632;2022-12-29T00:24:00;6.3;;;2.1;;
69404;SDS011;57084;52.046;5.632;2022-12-29T00:25:00;6.3;;;2.1;;
69404;SDS011;57084;52.046;5.632;2022-12-29T00:26:02;5.1;;;2.0;;
69404;SDS011;57084;52.046;5.632;2022-12-29T00:27:11;5.1;;;2.0;;
69404;SDS011;57084;52.046;5.632;2022-12-29T00:28:00;5.1;;;2.0;;
69404;SDS011;57084;52.046;5.632;2022-12-29T00:29:00;5.1;;;2.0;;
69404;SDS011;57084;52.046;5.632;2022-12-29T00:30:00;5.1;;;2.0;;
69404;SDS011;57084;52.046;5.632;2022-12-29T00:31:00;4.3;;;1.9;;
69404;SDS011;57084;52.046;5.632;2022-12-29T00:32:00;4.3;;;1.9;;
69404;SDS011;57084;52.046;5.632;2022-12-29T00:33:00;4.3;;;1.9;;
69404;SDS011;57084;52.046;5.632;2022-12-29T00:34:00;4.3;;;1.9;;
69404;SDS011;57084;52.046;5.632;2022-12-29T00:35:00;4.3;;;1.9;;
69404;SDS011;57084;52.046;5.632;2022-12-29T00:36:02;4.9;;;2.2;;
69404;SDS011;57084;52.046;5.632;2022-12-29T00:37:00;4.9;;;2.2;;
69404;SDS011;57084;52.046;5.632;2022-12-29T00:38:02;4.9;;;2.2;;
69404;SDS011;57084;52.046;5.632;2022-12-29T00:39:02;4.9;;;2.2;;
69404;SDS011;57084;52.046;5.632;2022-12-29T00:40:00;4.9;;;2.2;;
69404;SDS011;57084;52.046;5.632;2022-12-29T00:41:00;4.7;;;2.1;;
69404;SDS011;57084;52.046;5.632;2022-12-29T00:42:03;4.7;;;2.1;;
69404;SDS011;57084;52.046;5.632;2022-12-29T00:43:00;4.7;;;2.1;;
69404;SDS011;57084;52.046;5.632;2022-12-29T00:44:00;4.7;;;2.1;;
69404;SDS011;57084;52.046;5.632;2022-12-29T00:45:00;4.7;;;2.1;;
69404;SDS011;57084;52.046;5.632;2022-12-29T00:46:00;3.9;;;1.8;;
69404;SDS011;57084;52.046;5.632;2022-12-29T00:47:00;3.9;;;1.8;;
69404;SDS011;57084;52.046;5.632;2022-12-29T00:48:00;3.9;;;1.8;;
69404;SDS011;57084;52.046;5.632;2022-12-29T00:49:00;3.9;;;1.8;;
69404;SDS011;57084;52.046;5.632;2022-12-29T00:50:00;3.9;;;1.8;;
69404;SDS011;57084;52.046;5.632;2022-12-29T00:51:00;4.1;;;2.0;;
69404;SDS011;57084;52.046;5.632;2022-12-29T00:52:03;4.1;;;2.0;;
69404;SDS011;57084;52.046;5.632;2022-12-29T00:53:00;4.1;;;2.0;;
69404;SDS011;57084;52.046;5.632;2022-12-29T00:54:00;4.1;;;2.0;;
69404;SDS011;57084;52.046;5.632;2022-12-29T00:55:00;4.1;;;2.0;;
69404;SDS011;57084;52.046;5.632;2022-12-29T00:56:00;4.9;;;2.1;;
69404;SDS011;57084;52.046;5.632;2022-12-29T00:57:01;4.9;;;2.1;;
69404;SDS011;57084;52.046;5.632;2022-12-29T00:58:00;4.9;;;2.1;;
69404;SDS011;57084;52.046;5.632;2022-12-29T00:59:00;4.9;;;2.1;;
69404;SDS011;57084;52.046;5.632;2022-12-29T01:00:00;4.9;;;2.1;;
69404;SDS011;57084;52.046;5.632;2022-12-29T01:01:00;5.6;;;2.1;;
69404;SDS011;57084;52.046;5.632;2022-12-29T01:02:00;5.6;;;2.1;;
69404;SDS011;57084;52.046;5.632;2022-12-29T01:03:00;5.6;;;2.1;;
69404;SDS011;57084;52.046;5.632;2022-12-29T01:04:00;5.6;;;2.1;;
69404;SDS011;57084;52.046;5.632;2022-12-29T01:05:00;5.6;;;2.1;;
69404;SDS011;57084;52.046;5.632;2022-12-29T01:06:00;5.6;;;2.1;;
69404;SDS011;57084;52.046;5.632;2022-12-29T01:07:00;3.5;;;1.6;;
69404;SDS011;57084;52.046;5.632;2022-12-29T01:08:00;3.5;;;1.6;;
69404;SDS011;57084;52.046;5.632;2022-12-29T01:09:00;3.5;;;1.6;;
69404;SDS011;57084;52.046;5.632;2022-12-29T01:10:00;3.5;;;1.6;;
69404;SDS011;57084;52.046;5.632;2022-12-29T01:11:01;3.5;;;1.6;;
69404;SDS011;57084;52.046;5.632;2022-12-29T01:12:00;4.3;;;1.8;;
69404;SDS011;57084;52.046;5.632;2022-12-29T01:13:00;4.3;;;1.8;;
69404;SDS011;57084;52.046;5.632;2022-12-29T01:14:00;4.3;;;1.8;;
69404;SDS011;57084;52.046;5.632;2022-12-29T01:15:00;4.3;;;1.8;;
69404;SDS011;57084;52.046;5.632;2022-12-29T01:16:00;4.3;;;1.8;;
69404;SDS011;57084;52.046;5.632;2022-12-29T01:17:00;2.9;;;1.4;;
69404;SDS011;57084;52.046;5.632;2022-12-29T01:18:00;2.9;;;1.4;;
69404;SDS011;57084;52.046;5.632;2022-12-29T01:19:00;2.9;;;1.4;;
69404;SDS011;57084;52.046;5.632;2022-12-29T01:20:00;2.9;;;1.4;;
69404;SDS011;57084;52.046;5.632;2022-12-29T01:21:00;2.9;;;1.4;;
69404;SDS011;57084;52.046;5.632;2022-12-29T01:22:00;5.7;;;1.8;;
69404;SDS011;57084;52.046;5.632;2022-12-29T01:23:00;5.7;;;1.8;;
69404;SDS011;57084;52.046;5.632;2022-12-29T01:24:00;5.7;;;1.8;;
69404;SDS011;57084;52.046;5.632;2022-12-29T01:25:00;5.7;;;1.8;;
69404;SDS011;57084;52.046;5.632;2022-12-29T01:26:08;5.7;;;1.8;;
69404;SDS011;57084;52.046;5.632;2022-12-29T01:27:00;3.0;;;1.3;;
69404;SDS011;57084;52.046;5.632;2022-12-29T01:28:00;3.0;;;1.3;;
69404;SDS011;57084;52.046;5.632;2022-12-29T01:29:00;3.0;;;1.3;;
69404;SDS011;57084;52.046;5.632;2022-12-29T01:30:00;3.0;;;1.3;;
69404;SDS011;57084;52.046;5.632;2022-12-29T01:31:00;3.0;;;1.3;;
69404;SDS011;57084;52.046;5.632;2022-12-29T01:32:00;4.2;;;1.7;;
69404;SDS011;57084;52.046;5.632;2022-12-29T01:33:00;4.2;;;1.7;;
69404;SDS011;57084;52.046;5.632;2022-12-29T01:34:00;4.2;;;1.7;;
69404;SDS011;57084;52.046;5.632;2022-12-29T01:35:00;4.2;;;1.7;;
69404;SDS011;57084;52.046;5.632;2022-12-29T01:36:00;4.2;;;1.7;;
69404;SDS011;57084;52.046;5.632;2022-12-29T01:37:00;3.3;;;1.4;;
69404;SDS011;57084;52.046;5.632;2022-12-29T01:38:00;3.3;;;1.4;;
69404;SDS011;57084;52.046;5.632;2022-12-29T01:39:00;3.3;;;1.4;;
69404;SDS011;57084;52.046;5.632;2022-12-29T01:40:00;3.3;;;1.4;;
69404;SDS011;57084;52.046;5.632;2022-12-29T01:41:01;3.3;;;1.4;;
69404;SDS011;57084;52.046;5.632;2022-12-29T01:42:00;4.3;;;1.6;;
69404;SDS011;57084;52.046;5.632;2022-12-29T01:43:00;4.3;;;1.6;;
69404;SDS011;57084;52.046;5.632;2022-12-29T01:44:00;4.3;;;1.6;;
69404;SDS011;57084;52.046;5.632;2022-12-29T01:45:01;4.3;;;1.6;;
69404;SDS011;57084;52.046;5.632;2022-12-29T01:46:00;4.3;;;1.6;;
69404;SDS011;57084;52.046;5.632;2022-12-29T01:47:00;3.3;;;1.3;;
69404;SDS011;57084;52.046;5.632;2022-12-29T01:48:02;3.3;;;1.3;;
69404;SDS011;57084;52.046;5.632;2022-12-29T01:49:05;3.3;;;1.3;;
69404;SDS011;57084;52.046;5.632;2022-12-29T01:50:03;3.3;;;1.3;;
69404;SDS011;57084;52.046;5.632;2022-12-29T01:51:00;3.3;;;1.3;;
69404;SDS011;57084;52.046;5.632;2022-12-29T01:52:03;3.3;;;1.4;;
69404;SDS011;57084;52.046;5.632;2022-12-29T01:53:04;3.3;;;1.4;;
69404;SDS011;57084;52.046;5.632;2022-12-29T01:54:02;3.3;;;1.4;;
69404;SDS011;57084;52.046;5.632;2022-12-29T01:55:02;3.3;;;1.4;;
69404;SDS011;57084;52.046;5.632;2022-12-29T01:56:03;3.3;;;1.4;;
69404;SDS011;57084;52.046;5.632;2022-12-29T01:57:01;3.5;;;1.6;;
69404;SDS011;57084;52.046;5.632;2022-12-29T01:58:04;3.5;;;1.6;;
69404;SDS011;57084;52.046;5.632;2022-12-29T01:59:04;3.5;;;1.6;;
69404;SDS011;57084;52.046;5.632;2022-12-29T02:00:04;3.5;;;1.6;;
69404;SDS011;57084;52.046;5.632;2022-12-29T02:01:00;3.5;;;1.6;;
69404;SDS011;57084;52.046;5.632;2022-12-29T02:02:01;3.4;;;1.5;;
69404;SDS011;57084;52.046;5.632;2022-12-29T02:03:00;3.4;;;1.5;;
69404;SDS011;57084;52.046;5.632;2022-12-29T02:04:00;3.4;;;1.5;;
69404;SDS011;57084;52.046;5.632;2022-12-29T02:05:05;3.4;;;1.5;;
69404;SDS011;57084;52.046;5.632;2022-12-29T02:06:02;3.4;;;1.5;;
69404;SDS011;57084;52.046;5.632;2022-12-29T02:07:02;2.6;;;1.5;;
69404;SDS011;57084;52.046;5.632;2022-12-29T02:08:01;2.6;;;1.5;;
69404;SDS011;57084;52.046;5.632;2022-12-29T02:09:00;2.6;;;1.5;;
69404;SDS011;57084;52.046;5.632;2022-12-29T02:10:02;2.6;;;1.5;;
69404;SDS011;57084;52.046;5.632;2022-12-29T02:11:01;2.6;;;1.5;;
69404;SDS011;57084;52.046;5.632;2022-12-29T02:12:00;3.0;;;1.5;;
69404;SDS011;57084;52.046;5.632;2022-12-29T02:13:00;3.0;;;1.5;;
69404;SDS011;57084;52.046;5.632;2022-12-29T02:14:00;3.0;;;1.5;;
69404;SDS011;57084;52.046;5.632;2022-12-29T02:15:01;3.0;;;1.5;;
69404;SDS011;57084;52.046;5.632;2022-12-29T02:16:08;3.0;;;1.5;;
69404;SDS011;57084;52.046;5.632;2022-12-29T02:17:08;3.9;;;1.7;;
69404;SDS011;57084;52.046;5.632;2022-12-29T02:18:14;3.9;;;1.7;;
69404;SDS011;57084;52.046;5.632;2022-12-29T02:19:19;3.9;;;1.7;;
69404;SDS011;57084;52.046;5.632;2022-12-29T02:20:17;3.9;;;1.7;;
69404;SDS011;57084;52.046;5.632;2022-12-29T02:21:17;3.9;;;1.7;;
69404;SDS011;57084;52.046;5.632;2022-12-29T02:22:05;4.0;;;1.5;;
69404;SDS011;57084;52.046;5.632;2022-12-29T02:24:15;4.0;;;1.5;;
69404;SDS011;57084;52.046;5.632;2022-12-29T02:25:30;4.0;;;1.5;;
69404;SDS011;57084;52.046;5.632;2022-12-29T02:26:15;4.0;;;1.5;;
69404;SDS011;57084;52.046;5.632;2022-12-29T02:27:14;3.6;;;1.5;;
69404;SDS011;57084;52.046;5.632;2022-12-29T02:28:10;3.6;;;1.5;;
69404;SDS011;57084;52.046;5.632;2022-12-29T02:29:16;3.6;;;1.5;;
69404;SDS011;57084;52.046;5.632;2022-12-29T02:30:06;3.6;;;1.5;;
69404;SDS011;57084;52.046;5.632;2022-12-29T02:31:06;3.6;;;1.5;;
69404;SDS011;57084;52.046;5.632;2022-12-29T02:32:03;3.3;;;1.5;;
69404;SDS011;57084;52.046;5.632;2022-12-29T02:33:06;3.3;;;1.5;;
69404;SDS011;57084;52.046;5.632;2022-12-29T02:34:08;3.3;;;1.5;;
69404;SDS011;57084;52.046;5.632;2022-12-29T02:35:05;3.3;;;1.5;;
69404;SDS011;57084;52.046;5.632;2022-12-29T02:36:06;3.3;;;1.5;;
69404;SDS011;57084;52.046;5.632;2022-12-29T02:37:03;2.6;;;1.2;;
69404;SDS011;57084;52.046;5.632;2022-12-29T02:38:07;2.6;;;1.2;;
69404;SDS011;57084;52.046;5.632;2022-12-29T02:39:06;2.6;;;1.2;;
69404;SDS011;57084;52.046;5.632;2022-12-29T02:40:06;2.6;;;1.2;;
69404;SDS011;57084;52.046;5.632;2022-12-29T02:41:07;2.6;;;1.2;;
69404;SDS011;57084;52.046;5.632;2022-12-29T02:42:07;5.0;;;1.5;;
69404;SDS011;57084;52.046;5.632;2022-12-29T02:43:04;5.0;;;1.5;;
69404;SDS011;57084;52.046;5.632;2022-12-29T02:44:06;5.0;;;1.5;;
69404;SDS011;57084;52.046;5.632;2022-12-29T02:45:04;5.0;;;1.5;;
69404;SDS011;57084;52.046;5.632;2022-12-29T02:46:03;5.0;;;1.5;;
69404;SDS011;57084;52.046;5.632;2022-12-29T02:47:05;2.7;;;1.3;;
69404;SDS011;57084;52.046;5.632;2022-12-29T02:48:04;2.7;;;1.3;;
69404;SDS011;57084;52.046;5.632;2022-12-29T02:49:05;2.7;;;1.3;;
69404;SDS011;57084;52.046;5.632;2022-12-29T02:50:05;2.7;;;1.3;;
69404;SDS011;57084;52.046;5.632;2022-12-29T02:51:03;2.7;;;1.3;;
69404;SDS011;57084;52.046;5.632;2022-12-29T02:52:02;3.0;;;1.4;;
69404;SDS011;57084;52.046;5.632;2022-12-29T02:53:02;3.0;;;1.4;;
69404;SDS011;57084;52.046;5.632;2022-12-29T02:54:00;3.0;;;1.4;;
69404;SDS011;57084;52.046;5.632;2022-12-29T02:55:00;3.0;;;1.4;;
69404;SDS011;57084;52.046;5.632;2022-12-29T02:56:00;3.0;;;1.4;;
69404;SDS011;57084;52.046;5.632;2022-12-29T02:57:00;4.1;;;1.4;;
69404;SDS011;57084;52.046;5.632;2022-12-29T02:58:14;4.1;;;1.4;;
69404;SDS011;57084;52.046;5.632;2022-12-29T02:59:00;4.1;;;1.4;;
69404;SDS011;57084;52.046;5.632;2022-12-29T03:00:03;4.1;;;1.4;;
69404;SDS011;57084;52.046;5.632;2022-12-29T03:01:16;4.1;;;1.4;;
69404;SDS011;57084;52.046;5.632;2022-12-29T03:02:14;3.7;;;1.4;;
69404;SDS011;57084;52.046;5.632;2022-12-29T03:03:09;3.7;;;1.4;;
69404;SDS011;57084;52.046;5.632;2022-12-29T03:04:10;3.7;;;1.4;;
69404;SDS011;57084;52.046;5.632;2022-12-29T03:05:13;3.7;;;1.4;;
69404;SDS011;57084;52.046;5.632;2022-12-29T03:06:11;3.7;;;1.4;;
69404;SDS011;57084;52.046;5.632;2022-12-29T03:07:08;2.8;;;1.2;;
69404;SDS011;57084;52.046;5.632;2022-12-29T03:08:04;2.8;;;1.2;;
69404;SDS011;57084;52.046;5.632;2022-12-29T03:09:05;2.8;;;1.2;;
69404;SDS011;57084;52.046;5.632;2022-12-29T03:10:05;2.8;;;1.2;;
69404;SDS011;57084;52.046;5.632;2022-12-29T03:11:03;2.8;;;1.2;;
69404;SDS011;57084;52.046;5.632;2022-12-29T03:12:07;3.2;;;1.1;;
69404;SDS011;57084;52.046;5.632;2022-12-29T03:13:02;3.2;;;1.1;;
69404;SDS011;57084;52.046;5.632;2022-12-29T03:14:06;3.2;;;1.1;;
69404;SDS011;57084;52.046;5.632;2022-12-29T03:15:04;3.2;;;1.1;;
69404;SDS011;57084;52.046;5.632;2022-12-29T03:16:07;3.2;;;1.1;;
69404;SDS011;57084;52.046;5.632;2022-12-29T03:17:04;3.2;;;1.1;;
69404;SDS011;57084;52.046;5.632;2022-12-29T03:18:06;3.2;;;1.2;;
69404;SDS011;57084;52.046;5.632;2022-12-29T03:19:02;3.2;;;1.2;;
69404;SDS011;57084;52.046;5.632;2022-12-29T03:20:04;3.2;;;1.2;;
69404;SDS011;57084;52.046;5.632;2022-12-29T03:21:04;3.2;;;1.2;;
69404;SDS011;57084;52.046;5.632;2022-12-29T03:22:02;3.2;;;1.2;;
69404;SDS011;57084;52.046;5.632;2022-12-29T03:23:01;3.7;;;1.3;;
69404;SDS011;57084;52.046;5.632;2022-12-29T03:24:00;3.7;;;1.3;;
69404;SDS011;57084;52.046;5.632;2022-12-29T03:25:03;3.7;;;1.3;;
69404;SDS011;57084;52.046;5.632;2022-12-29T03:26:03;3.7;;;1.3;;
69404;SDS011;57084;52.046;5.632;2022-12-29T03:27:02;3.7;;;1.3;;
69404;SDS011;57084;52.046;5.632;2022-12-29T03:28:02;2.2;;;1.2;;
69404;SDS011;57084;52.046;5.632;2022-12-29T03:29:00;2.2;;;1.2;;
69404;SDS011;57084;52.046;5.632;2022-12-29T03:30:03;2.2;;;1.2;;
69404;SDS011;57084;52.046;5.632;2022-12-29T03:31:00;2.2;;;1.2;;
69404;SDS011;57084;52.046;5.632;2022-12-29T03:32:02;2.2;;;1.2;;
69404;SDS011;57084;52.046;5.632;2022-12-29T03:33:02;3.0;;;1.3;;
69404;SDS011;57084;52.046;5.632;2022-12-29T03:34:00;3.0;;;1.3;;
69404;SDS011;57084;52.046;5.632;2022-12-29T03:35:01;3.0;;;1.3;;
69404;SDS011;57084;52.046;5.632;2022-12-29T03:36:03;3.0;;;1.3;;
69404;SDS011;57084;52.046;5.632;2022-12-29T03:37:04;3.0;;;1.3;;
69404;SDS011;57084;52.046;5.632;2022-12-29T03:38:05;3.9;;;1.3;;
69404;SDS011;57084;52.046;5.632;2022-12-29T03:39:03;3.9;;;1.3;;
69404;SDS011;57084;52.046;5.632;2022-12-29T03:40:00;3.9;;;1.3;;
69404;SDS011;57084;52.046;5.632;2022-12-29T03:41:04;3.9;;;1.3;;
69404;SDS011;57084;52.046;5.632;2022-12-29T03:42:03;3.9;;;1.3;;
69404;SDS011;57084;52.046;5.632;2022-12-29T03:43:01;5.3;;;1.1;;
69404;SDS011;57084;52.046;5.632;2022-12-29T03:44:00;5.3;;;1.1;;
69404;SDS011;57084;52.046;5.632;2022-12-29T03:45:00;5.3;;;1.1;;
69404;SDS011;57084;52.046;5.632;2022-12-29T03:46:00;5.3;;;1.1;;
69404;SDS011;57084;52.046;5.632;2022-12-29T03:47:00;5.3;;;1.1;;
69404;SDS011;57084;52.046;5.632;2022-12-29T03:48:00;3.0;;;1.3;;
69404;SDS011;57084;52.046;5.632;2022-12-29T03:49:00;3.0;;;1.3;;
69404;SDS011;57084;52.046;5.632;2022-12-29T03:50:00;3.0;;;1.3;;
69404;SDS011;57084;52.046;5.632;2022-12-29T03:51:00;3.0;;;1.3;;
69404;SDS011;57084;52.046;5.632;2022-12-29T03:52:00;3.0;;;1.3;;
69404;SDS011;57084;52.046;5.632;2022-12-29T03:53:00;5.0;;;1.5;;
69404;SDS011;57084;52.046;5.632;2022-12-29T03:54:00;5.0;;;1.5;;
69404;SDS011;57084;52.046;5.632;2022-12-29T03:55:00;5.0;;;1.5;;
69404;SDS011;57084;52.046;5.632;2022-12-29T03:56:00;5.0;;;1.5;;
69404;SDS011;57084;52.046;5.632;2022-12-29T03:57:00;5.0;;;1.5;;
69404;SDS011;57084;52.046;5.632;2022-12-29T03:58:00;5.0;;;1.5;;
69404;SDS011;57084;52.046;5.632;2022-12-29T03:59:00;5.0;;;1.5;;
69404;SDS011;57084;52.046;5.632;2022-12-29T04:00:00;5.0;;;1.5;;
69404;SDS011;57084;52.046;5.632;2022-12-29T04:01:00;5.0;;;1.5;;
69404;SDS011;57084;52.046;5.632;2022-12-29T04:02:00;5.0;;;1.5;;
69404;SDS011;57084;52.046;5.632;2022-12-29T04:03:00;3.8;;;1.5;;
69404;SDS011;57084;52.046;5.632;2022-12-29T04:04:00;3.8;;;1.5;;
69404;SDS011;57084;52.046;5.632;2022-12-29T04:05:00;3.8;;;1.5;;
69404;SDS011;57084;52.046;5.632;2022-12-29T04:06:00;3.8;;;1.5;;
69404;SDS011;57084;52.046;5.632;2022-12-29T04:07:00;3.8;;;1.5;;
69404;SDS011;57084;52.046;5.632;2022-12-29T04:08:00;3.5;;;1.3;;
69404;SDS011;57084;52.046;5.632;2022-12-29T04:09:00;3.5;;;1.3;;
69404;SDS011;57084;52.046;5.632;2022-12-29T04:10:00;3.5;;;1.3;;
69404;SDS011;57084;52.046;5.632;2022-12-29T04:11:00;3.5;;;1.3;;
69404;SDS011;57084;52.046;5.632;2022-12-29T04:12:00;3.5;;;1.3;;
69404;SDS011;57084;52.046;5.632;2022-12-29T04:13:00;2.8;;;1.5;;
69404;SDS011;57084;52.046;5.632;2022-12-29T04:14:00;2.8;;;1.5;;
69404;SDS011;57084;52.046;5.632;2022-12-29T04:15:00;2.8;;;1.5;;
69404;SDS011;57084;52.046;5.632;2022-12-29T04:16:00;2.8;;;1.5;;
69404;SDS011;57084;52.046;5.632;2022-12-29T04:17:00;2.8;;;1.5;;
69404;SDS011;57084;52.046;5.632;2022-12-29T04:18:00;4.3;;;1.4;;
69404;SDS011;57084;52.046;5.632;2022-12-29T04:19:00;4.3;;;1.4;;
69404;SDS011;57084;52.046;5.632;2022-12-29T04:20:00;4.3;;;1.4;;
69404;SDS011;57084;52.046;5.632;2022-12-29T04:21:00;4.3;;;1.4;;
69404;SDS011;57084;52.046;5.632;2022-12-29T04:22:00;4.3;;;1.4;;
69404;SDS011;57084;52.046;5.632;2022-12-29T04:23:00;5.2;;;1.3;;
69404;SDS011;57084;52.046;5.632;2022-12-29T04:24:00;5.2;;;1.3;;
69404;SDS011;57084;52.046;5.632;2022-12-29T04:25:00;5.2;;;1.3;;
69404;SDS011;57084;52.046;5.632;2022-12-29T04:26:00;5.2;;;1.3;;
69404;SDS011;57084;52.046;5.632;2022-12-29T04:27:00;5.2;;;1.3;;
69404;SDS011;57084;52.046;5.632;2022-12-29T04:28:00;1.9;;;1.1;;
69404;SDS011;57084;52.046;5.632;2022-12-29T04:29:00;1.9;;;1.1;;
69404;SDS011;57084;52.046;5.632;2022-12-29T04:30:00;1.9;;;1.1;;
69404;SDS011;57084;52.046;5.632;2022-12-29T04:31:00;1.9;;;1.1;;
69404;SDS011;57084;52.046;5.632;2022-12-29T04:32:00;1.9;;;1.1;;
69404;SDS011;57084;52.046;5.632;2022-12-29T04:33:00;3.1;;;1.3;;
69404;SDS011;57084;52.046;5.632;2022-12-29T04:34:00;3.1;;;1.3;;
69404;SDS011;57084;52.046;5.632;2022-12-29T04:35:00;3.1;;;1.3;;
69404;SDS011;57084;52.046;5.632;2022-12-29T04:36:00;3.1;;;1.3;;
69404;SDS011;57084;52.046;5.632;2022-12-29T04:37:00;3.1;;;1.3;;
69404;SDS011;57084;52.046;5.632;2022-12-29T04:38:00;9.7;;;1.6;;
69404;SDS011;57084;52.046;5.632;2022-12-29T04:39:00;9.7;;;1.6;;
69404;SDS011;57084;52.046;5.632;2022-12-29T04:40:00;9.7;;;1.6;;
69404;SDS011;57084;52.046;5.632;2022-12-29T04:41:00;9.7;;;1.6;;
69404;SDS011;57084;52.046;5.632;2022-12-29T04:42:00;9.7;;;1.6;;
69404;SDS011;57084;52.046;5.632;2022-12-29T04:43:00;5.0;;;1.4;;
69404;SDS011;57084;52.046;5.632;2022-12-29T04:44:00;5.0;;;1.4;;
69404;SDS011;57084;52.046;5.632;2022-12-29T04:45:01;5.0;;;1.4;;
69404;SDS011;57084;52.046;5.632;2022-12-29T04:46:00;5.0;;;1.4;;
69404;SDS011;57084;52.046;5.632;2022-12-29T04:47:00;5.0;;;1.4;;
69404;SDS011;57084;52.046;5.632;2022-12-29T04:48:00;5.7;;;1.4;;
69404;SDS011;57084;52.046;5.632;2022-12-29T04:49:00;5.7;;;1.4;;
69404;SDS011;57084;52.046;5.632;2022-12-29T04:50:00;5.7;;;1.4;;
69404;SDS011;57084;52.046;5.632;2022-12-29T04:51:00;5.7;;;1.4;;
69404;SDS011;57084;52.046;5.632;2022-12-29T04:52:00;5.7;;;1.4;;
69404;SDS011;57084;52.046;5.632;2022-12-29T04:53:00;10.1;;;2.0;;
69404;SDS011;57084;52.046;5.632;2022-12-29T04:54:00;10.1;;;2.0;;
69404;SDS011;57084;52.046;5.632;2022-12-29T04:55:00;10.1;;;2.0;;
69404;SDS011;57084;52.046;5.632;2022-12-29T04:56:00;10.1;;;2.0;;
69404;SDS011;57084;52.046;5.632;2022-12-29T04:57:00;10.1;;;2.0;;
69404;SDS011;57084;52.046;5.632;2022-12-29T04:58:00;4.7;;;1.4;;
69404;SDS011;57084;52.046;5.632;2022-12-29T04:59:00;4.7;;;1.4;;
69404;SDS011;57084;52.046;5.632;2022-12-29T05:00:00;4.7;;;1.4;;
69404;SDS011;57084;52.046;5.632;2022-12-29T05:01:00;4.7;;;1.4;;
69404;SDS011;57084;52.046;5.632;2022-12-29T05:02:00;4.7;;;1.4;;
69404;SDS011;57084;52.046;5.632;2022-12-29T05:03:00;4.7;;;1.4;;
69404;SDS011;57084;52.046;5.632;2022-12-29T05:04:00;5.0;;;1.4;;
69404;SDS011;57084;52.046;5.632;2022-12-29T05:05:00;5.0;;;1.4;;
69404;SDS011;57084;52.046;5.632;2022-12-29T05:06:00;5.0;;;1.4;;
69404;SDS011;57084;52.046;5.632;2022-12-29T05:07:00;5.0;;;1.4;;
69404;SDS011;57084;52.046;5.632;2022-12-29T05:08:00;5.0;;;1.4;;
69404;SDS011;57084;52.046;5.632;2022-12-29T05:09:00;13.0;;;1.8;;
69404;SDS011;57084;52.046;5.632;2022-12-29T05:10:00;13.0;;;1.8;;
69404;SDS011;57084;52.046;5.632;2022-12-29T05:11:00;13.0;;;1.8;;
69404;SDS011;57084;52.046;5.632;2022-12-29T05:12:00;13.0;;;1.8;;
69404;SDS011;57084;52.046;5.632;2022-12-29T05:13:00;13.0;;;1.8;;
69404;SDS011;57084;52.046;5.632;2022-12-29T05:14:00;8.0;;;1.5;;
69404;SDS011;57084;52.046;5.632;2022-12-29T05:15:00;8.0;;;1.5;;
69404;SDS011;57084;52.046;5.632;2022-12-29T05:16:00;8.0;;;1.5;;
69404;SDS011;57084;52.046;5.632;2022-12-29T05:17:00;8.0;;;1.5;;
69404;SDS011;57084;52.046;5.632;2022-12-29T05:18:00;8.0;;;1.5;;
69404;SDS011;57084;52.046;5.632;2022-12-29T05:19:00;9.5;;;1.8;;
69404;SDS011;57084;52.046;5.632;2022-12-29T05:20:00;9.5;;;1.8;;
69404;SDS011;57084;52.046;5.632;2022-12-29T05:21:00;9.5;;;1.8;;
69404;SDS011;57084;52.046;5.632;2022-12-29T05:22:00;9.5;;;1.8;;
69404;SDS011;57084;52.046;5.632;2022-12-29T05:23:00;9.5;;;1.8;;
69404;SDS011;57084;52.046;5.632;2022-12-29T05:24:00;8.6;;;1.4;;
69404;SDS011;57084;52.046;5.632;2022-12-29T05:25:00;8.6;;;1.4;;
69404;SDS011;57084;52.046;5.632;2022-12-29T05:26:00;8.6;;;1.4;;
69404;SDS011;57084;52.046;5.632;2022-12-29T05:27:00;8.6;;;1.4;;
69404;SDS011;57084;52.046;5.632;2022-12-29T05:28:00;8.6;;;1.4;;
69404;SDS011;57084;52.046;5.632;2022-12-29T05:29:00;6.5;;;1.6;;
69404;SDS011;57084;52.046;5.632;2022-12-29T05:30:00;6.5;;;1.6;;
69404;SDS011;57084;52.046;5.632;2022-12-29T05:31:00;6.5;;;1.6;;
69404;SDS011;57084;52.046;5.632;2022-12-29T05:32:00;6.5;;;1.6;;
69404;SDS011;57084;52.046;5.632;2022-12-29T05:33:00;6.5;;;1.6;;
69404;SDS011;57084;52.046;5.632;2022-12-29T05:34:00;6.0;;;1.6;;
69404;SDS011;57084;52.046;5.632;2022-12-29T05:35:00;6.0;;;1.6;;
69404;SDS011;57084;52.046;5.632;2022-12-29T05:36:03;6.0;;;1.6;;
69404;SDS011;57084;52.046;5.632;2022-12-29T05:37:00;6.0;;;1.6;;
69404;SDS011;57084;52.046;5.632;2022-12-29T05:38:00;6.0;;;1.6;;
69404;SDS011;57084;52.046;5.632;2022-12-29T05:39:00;8.6;;;1.7;;
69404;SDS011;57084;52.046;5.632;2022-12-29T05:40:00;8.6;;;1.7;;
69404;SDS011;57084;52.046;5.632;2022-12-29T05:41:00;8.6;;;1.7;;
69404;SDS011;57084;52.046;5.632;2022-12-29T05:42:00;8.6;;;1.7;;
69404;SDS011;57084;52.046;5.632;2022-12-29T05:43:00;8.6;;;1.7;;
69404;SDS011;57084;52.046;5.632;2022-12-29T05:44:00;8.3;;;1.6;;
69404;SDS011;57084;52.046;5.632;2022-12-29T05:45:00;8.3;;;1.6;;
69404;SDS011;57084;52.046;5.632;2022-12-29T05:46:00;8.3;;;1.6;;
69404;SDS011;57084;52.046;5.632;2022-12-29T05:47:00;8.3;;;1.6;;
69404;SDS011;57084;52.046;5.632;2022-12-29T05:48:00;8.3;;;1.6;;
69404;SDS011;57084;52.046;5.632;2022-12-29T05:49:00;6.8;;;1.6;;
69404;SDS011;57084;52.046;5.632;2022-12-29T05:50:00;6.8;;;1.6;;
69404;SDS011;57084;52.046;5.632;2022-12-29T05:51:00;6.8;;;1.6;;
69404;SDS011;57084;52.046;5.632;2022-12-29T05:52:00;6.8;;;1.6;;
69404;SDS011;57084;52.046;5.632;2022-12-29T05:53:00;6.8;;;1.6;;
69404;SDS011;57084;52.046;5.632;2022-12-29T05:54:00;6.1;;;1.7;;
69404;SDS011;57084;52.046;5.632;2022-12-29T05:55:00;6.1;;;1.7;;
69404;SDS011;57084;52.046;5.632;2022-12-29T05:56:00;6.1;;;1.7;;
69404;SDS011;57084;52.046;5.632;2022-12-29T05:57:00;6.1;;;1.7;;
69404;SDS011;57084;52.046;5.632;2022-12-29T05:58:00;6.1;;;1.7;;
69404;SDS011;57084;52.046;5.632;2022-12-29T05:59:00;5.9;;;1.4;;
69404;SDS011;57084;52.046;5.632;2022-12-29T06:00:00;5.9;;;1.4;;
69404;SDS011;57084;52.046;5.632;2022-12-29T06:01:00;5.9;;;1.4;;
69404;SDS011;57084;52.046;5.632;2022-12-29T06:02:00;5.9;;;1.4;;
69404;SDS011;57084;52.046;5.632;2022-12-29T06:03:00;5.9;;;1.4;;
69404;SDS011;57084;52.046;5.632;2022-12-29T06:04:00;5.1;;;1.4;;
69404;SDS011;57084;52.046;5.632;2022-12-29T06:05:00;5.1;;;1.4;;
69404;SDS011;57084;52.046;5.632;2022-12-29T06:06:00;5.1;;;1.4;;
69404;SDS011;57084;52.046;5.632;2022-12-29T06:07:00;5.1;;;1.4;;
69404;SDS011;57084;52.046;5.632;2022-12-29T06:08:00;5.1;;;1.4;;
69404;SDS011;57084;52.046;5.632;2022-12-29T06:09:00;5.4;;;1.5;;
69404;SDS011;57084;52.046;5.632;2022-12-29T06:10:00;5.4;;;1.5;;
69404;SDS011;57084;52.046;5.632;2022-12-29T06:11:00;5.4;;;1.5;;
69404;SDS011;57084;52.046;5.632;2022-12-29T06:12:00;5.4;;;1.5;;
69404;SDS011;57084;52.046;5.632;2022-12-29T06:13:00;5.4;;;1.5;;